sensor_id;sensor_type;location;lat;lon;timestamp;pressure;altitude;pressure_sealevel;temperature;humidity
17950;BME280;9100;48.700;9.316;2022-09-09T00:00:54;97418;;;17.15;100
17950;BME280;9100;48.700;9.316;2022-09-09T00:01:54;97419;;;17.14;100
17950;BME280;9100;48.700;9.316;2022-09-09T00:02:49;97413.3;;;17.12;100
17950;BME280;9100;48.700;9.316;2022-09-09T00:02:55;97418.4;;;17.12;100
17950;BME280;9100;48.700;9.316;2022-09-09T00:03:54;97414.8;;;17.13;100
17950;BME280;9100;48.700;9.316;2022-09-09T00:04:55;97414;;;17.13;100
17950;BME280;9100;48.700;9.316;2022-09-09T00:05:55;97421;;;17.12;100
17950;BME280;9100;48.700;9.316;2022-09-09T00:06:55;97416.9;;;17.11;100
17950;BME280;9100;48.700;9.316;2022-09-09T00:07:47;97415.3;;;17.1;100
17950;BME280;9100;48.700;9.316;2022-09-09T00:07:54;97415.3;;;17.1;100
17950;BME280;9100;48.700;9.316;2022-09-09T00:08:57;97420.5;;;17.1;100
17950;BME280;9100;48.700;9.316;2022-09-09T00:09:53;97415.5;;;17.09;100
17950;BME280;9100;48.700;9.316;2022-09-09T00:10:54;97413.7;;;17.09;100
17950;BME280;9100;48.700;9.316;2022-09-09T00:11:54;97412.2;;;17.08;100
17950;BME280;9100;48.700;9.316;2022-09-09T00:12:49;97415;;;17.07;100
17950;BME280;9100;48.700;9.316;2022-09-09T00:12:55;97409.79999999999;;;17.07;100
17950;BME280;9100;48.700;9.316;2022-09-09T00:13:53;97410.6;;;17.07;100
17950;BME280;9100;48.700;9.316;2022-09-09T00:14:54;97406.4;;;17.06;100
17950;BME280;9100;48.700;9.316;2022-09-09T00:15:54;97411;;;17.04;100
17950;BME280;9100;48.700;9.316;2022-09-09T00:16:54;97411;;;17.04;100
17950;BME280;9100;48.700;9.316;2022-09-09T00:17:48;97399.90000000001;;;17.04;100
17950;BME280;9100;48.700;9.316;2022-09-09T00:17:55;97405.1;;;17.04;100
17950;BME280;9100;48.700;9.316;2022-09-09T00:18:55;97408.4;;;17.04;100
17950;BME280;9100;48.700;9.316;2022-09-09T00:19:54;97411;;;17.04;100
17950;BME280;9100;48.700;9.316;2022-09-09T00:20:55;97405.9;;;17.04;100
17950;BME280;9100;48.700;9.316;2022-09-09T00:21:56;97404.5;;;17.02;100
17950;BME280;9100;48.700;9.316;2022-09-09T00:22:47;97401.9;;;17.02;100
17950;BME280;9100;48.700;9.316;2022-09-09T00:22:53;97401.09999999999;;;17.01;100
17950;BME280;9100;48.700;9.316;2022-09-09T00:23:54;97405.5;;;17.01;100
17950;BME280;9100;48.700;9.316;2022-09-09T00:24:53;97398;;;16.99;100
17950;BME280;9100;48.700;9.316;2022-09-09T00:25:55;97400.8;;;16.97;100
17950;BME280;9100;48.700;9.316;2022-09-09T00:26:54;97397.40000000001;;;16.97;100
17950;BME280;9100;48.700;9.316;2022-09-09T00:27:47;97395.9;;;16.96;100
17950;BME280;9100;48.700;9.316;2022-09-09T00:27:53;97397.7;;;16.95;100
17950;BME280;9100;48.700;9.316;2022-09-09T00:28:55;97391.5;;;16.96;100
17950;BME280;9100;48.700;9.316;2022-09-09T00:29:53;97384.7;;;16.95;100
17950;BME280;9100;48.700;9.316;2022-09-09T00:30:53;97394.1;;;16.96;100
17950;BME280;9100;48.700;9.316;2022-09-09T00:31:53;97384;;;16.95;100
17950;BME280;9100;48.700;9.316;2022-09-09T00:32:47;97398.90000000001;;;16.93;100
17950;BME280;9100;48.700;9.316;2022-09-09T00:32:54;97396.1;;;16.94;100
17950;BME280;9100;48.700;9.316;2022-09-09T00:33:53;97394.3;;;16.95;100
17950;BME280;9100;48.700;9.316;2022-09-09T00:34:54;97397.7;;;16.95;100
17950;BME280;9100;48.700;9.316;2022-09-09T00:35:54;97393.3;;;16.96;100
17950;BME280;9100;48.700;9.316;2022-09-09T00:36:53;97393.5;;;16.94;100
17950;BME280;9100;48.700;9.316;2022-09-09T00:37:47;97390.09999999999;;;16.94;100
17950;BME280;9100;48.700;9.316;2022-09-09T00:37:54;97395.3;;;16.94;100
17950;BME280;9100;48.700;9.316;2022-09-09T00:38:55;97395.3;;;16.94;100
17950;BME280;9100;48.700;9.316;2022-09-09T00:39:53;97396.1;;;16.94;100
17950;BME280;9100;48.700;9.316;2022-09-09T00:40:55;97395.3;;;16.94;100
17950;BME280;9100;48.700;9.316;2022-09-09T00:41:58;97394.5;;;16.93;100
17950;BME280;9100;48.700;9.316;2022-09-09T00:42:46;97394.3;;;16.95;100
17950;BME280;9100;48.700;9.316;2022-09-09T00:42:54;97396.90000000001;;;16.95;100
17950;BME280;9100;48.700;9.316;2022-09-09T00:43:56;97394.3;;;16.95;100
17950;BME280;9100;48.700;9.316;2022-09-09T00:44:56;97401;;;16.96;100
17950;BME280;9100;48.700;9.316;2022-09-09T00:46:05;97397.7;;;16.95;100
17950;BME280;9100;48.700;9.316;2022-09-09T00:46:55;97387.8;;;16.92;100
17950;BME280;9100;48.700;9.316;2022-09-09T00:47:46;97391.4;;;16.91;100
17950;BME280;9100;48.700;9.316;2022-09-09T00:47:53;97390.59999999999;;;16.91;100
17950;BME280;9100;48.700;9.316;2022-09-09T00:48:54;97397.5;;;16.9;100
17950;BME280;9100;48.700;9.316;2022-09-09T00:49:56;97389;;;16.9;100
17950;BME280;9100;48.700;9.316;2022-09-09T00:50:53;97399.3;;;16.9;100
17950;BME280;9100;48.700;9.316;2022-09-09T00:51:56;97395.7;;;16.91;100
17950;BME280;9100;48.700;9.316;2022-09-09T00:52:47;97399.3;;;16.9;100
17950;BME280;9100;48.700;9.316;2022-09-09T00:52:56;97390.59999999999;;;16.91;100
17950;BME280;9100;48.700;9.316;2022-09-09T00:54:00;97401.70000000001;;;16.91;100
17950;BME280;9100;48.700;9.316;2022-09-09T00:54:54;97398.1;;;16.92;100
17950;BME280;9100;48.700;9.316;2022-09-09T00:55:54;97395.7;;;16.91;100
17950;BME280;9100;48.700;9.316;2022-09-09T00:56:55;97400.40000000001;;;16.89;100
17950;BME280;9100;48.700;9.316;2022-09-09T00:57:47;97398.6;;;16.89;100
17950;BME280;9100;48.700;9.316;2022-09-09T00:57:53;97403.7;;;16.89;100
17950;BME280;9100;48.700;9.316;2022-09-09T00:58:55;97402.9;;;16.89;100
17950;BME280;9100;48.700;9.316;2022-09-09T00:59:56;97402.9;;;16.89;100
17950;BME280;9100;48.700;9.316;2022-09-09T01:00:55;97401.59999999999;;;16.86;100
17950;BME280;9100;48.700;9.316;2022-09-09T01:01:53;97406;;;16.86;100
17950;BME280;9100;48.700;9.316;2022-09-09T01:02:51;97409.3;;;16.86;100
17950;BME280;9100;48.700;9.316;2022-09-09T01:03:29;97402.59999999999;;;16.85;100
17950;BME280;9100;48.700;9.316;2022-09-09T01:03:54;97406.7;;;16.86;100
17950;BME280;9100;48.700;9.316;2022-09-09T01:04:53;97409.3;;;16.86;100
17950;BME280;9100;48.700;9.316;2022-09-09T01:05:56;97411.1;;;16.86;100
17950;BME280;9100;48.700;9.316;2022-09-09T01:06:54;97408.8;;;16.84;100
17950;BME280;9100;48.700;9.316;2022-09-09T01:07:47;97411.6;;;16.83;100
17950;BME280;9100;48.700;9.316;2022-09-09T01:07:53;97403;;;16.82;100
17950;BME280;9100;48.700;9.316;2022-09-09T01:08:58;97402.3;;;16.82;100
17950;BME280;9100;48.700;9.316;2022-09-09T01:09:54;97405.9;;;16.81;100
17950;BME280;9100;48.700;9.316;2022-09-09T01:10:53;97392.4;;;16.79;100
17950;BME280;9100;48.700;9.316;2022-09-09T01:11:55;97397;;;16.77;100
17950;BME280;9100;48.700;9.316;2022-09-09T01:12:46;97403.09999999999;;;16.76;100
17950;BME280;9100;48.700;9.316;2022-09-09T01:12:53;97398;;;16.76;100
17950;BME280;9100;48.700;9.316;2022-09-09T01:13:53;97395.6;;;16.74;100
17950;BME280;9100;48.700;9.316;2022-09-09T01:14:55;97395.3;;;16.71;100
17950;BME280;9100;48.700;9.316;2022-09-09T01:15:53;97393.9;;;16.68;100
17950;BME280;9100;48.700;9.316;2022-09-09T01:16:53;97394.6;;;16.64;100
17950;BME280;9100;48.700;9.316;2022-09-09T01:17:50;97395;;;16.61;100
17950;BME280;9100;48.700;9.316;2022-09-09T01:17:54;97391.5;;;16.62;100
17950;BME280;9100;48.700;9.316;2022-09-09T01:18:53;97393.2;;;16.61;100
17950;BME280;9100;48.700;9.316;2022-09-09T01:19:59;97396.8;;;16.6;100
17950;BME280;9100;48.700;9.316;2022-09-09T01:20:55;97394.5;;;16.59;100
17950;BME280;9100;48.700;9.316;2022-09-09T01:21:55;97392.9;;;16.58;100
17950;BME280;9100;48.700;9.316;2022-09-09T01:22:49;97394.9;;;16.56;100
17950;BME280;9100;48.700;9.316;2022-09-09T01:22:57;97394.9;;;16.56;100
17950;BME280;9100;48.700;9.316;2022-09-09T01:23:59;97395.9;;;16.55;100
17950;BME280;9100;48.700;9.316;2022-09-09T01:25:02;97406.2;;;16.55;100
17950;BME280;9100;48.700;9.316;2022-09-09T01:26:04;97398.5;;;16.55;100
17950;BME280;9100;48.700;9.316;2022-09-09T01:26:54;97395.9;;;16.55;100
17950;BME280;9100;48.700;9.316;2022-09-09T01:27:47;97388.4;;;16.53;100
17950;BME280;9100;48.700;9.316;2022-09-09T01:27:53;97396.1;;;16.53;100
17950;BME280;9100;48.700;9.316;2022-09-09T01:28:53;97403.09999999999;;;16.53;100
17950;BME280;9100;48.700;9.316;2022-09-09T01:29:53;97399.90000000001;;;16.5;100
17950;BME280;9100;48.700;9.316;2022-09-09T01:30:53;97400.9;;;16.49;100
17950;BME280;9100;48.700;9.316;2022-09-09T01:31:54;97406.3;;;16.48;100
17950;BME280;9100;48.700;9.316;2022-09-09T01:32:48;97401.2;;;16.48;100
17950;BME280;9100;48.700;9.316;2022-09-09T01:32:54;97402.70000000001;;;16.49;100
17950;BME280;9100;48.700;9.316;2022-09-09T01:33:53;97402;;;16.48;100
17950;BME280;9100;48.700;9.316;2022-09-09T01:34:53;97404.6;;;16.48;100
17950;BME280;9100;48.700;9.316;2022-09-09T01:35:53;97406.1;;;16.49;100
17950;BME280;9100;48.700;9.316;2022-09-09T01:36:55;97407.1;;;16.48;100
17950;BME280;9100;48.700;9.316;2022-09-09T01:37:46;97412.3;;;16.48;100
17950;BME280;9100;48.700;9.316;2022-09-09T01:37:53;97412.3;;;16.48;100
17950;BME280;9100;48.700;9.316;2022-09-09T01:38:53;97402.70000000001;;;16.49;100
17950;BME280;9100;48.700;9.316;2022-09-09T01:39:53;97409.5;;;16.5;100
17950;BME280;9100;48.700;9.316;2022-09-09T01:40:53;97407.7;;;16.5;100
17950;BME280;9100;48.700;9.316;2022-09-09T01:41:53;97403.8;;;16.48;100
17950;BME280;9100;48.700;9.316;2022-09-09T01:42:46;97331.6;;;16;100
17950;BME280;9100;48.700;9.316;2022-09-09T01:42:53;97412.3;;;16.48;100
17950;BME280;9100;48.700;9.316;2022-09-09T01:43:53;97414.59999999999;;;16.5;100
17950;BME280;9100;48.700;9.316;2022-09-09T01:44:53;97405.1;;;16.5;100
17950;BME280;9100;48.700;9.316;2022-09-09T01:45:54;97403.09999999999;;;16.53;100
17950;BME280;9100;48.700;9.316;2022-09-09T01:46:53;97406.7;;;16.52;100
17950;BME280;9100;48.700;9.316;2022-09-09T01:47:46;97405.7;;;16.53;100
17950;BME280;9100;48.700;9.316;2022-09-09T01:47:53;97403.09999999999;;;16.53;100
17950;BME280;9100;48.700;9.316;2022-09-09T01:48:53;97400.5;;;16.53;100
17950;BME280;9100;48.700;9.316;2022-09-09T01:49:53;97390;;;16.54;100
17950;BME280;9100;48.700;9.316;2022-09-09T01:50:53;97401.9;;;16.55;100
17950;BME280;9100;48.700;9.316;2022-09-09T01:51:54;97399.5;;;16.54;100
17950;BME280;9100;48.700;9.316;2022-09-09T01:52:47;97398.7;;;16.53;100
17950;BME280;9100;48.700;9.316;2022-09-09T01:52:54;97399.5;;;16.54;100
17950;BME280;9100;48.700;9.316;2022-09-09T01:53:53;97399.5;;;16.54;100
17950;BME280;9100;48.700;9.316;2022-09-09T01:54:53;97400.5;;;16.53;100
17950;BME280;9100;48.700;9.316;2022-09-09T01:55:56;97399.2;;;16.5;100
17950;BME280;9100;48.700;9.316;2022-09-09T01:56:55;97402;;;16.48;100
17950;BME280;9100;48.700;9.316;2022-09-09T01:57:49;97403.2;;;16.46;100
17950;BME280;9100;48.700;9.316;2022-09-09T01:57:55;97399.8;;;16.45;100
17950;BME280;9100;48.700;9.316;2022-09-09T01:58:57;97400.8;;;16.44;100
17950;BME280;9100;48.700;9.316;2022-09-09T01:59:58;97398.5;;;16.43;100
17950;BME280;9100;48.700;9.316;2022-09-09T02:00:54;97394.5;;;16.4;100
17950;BME280;9100;48.700;9.316;2022-09-09T02:01:56;97396.5;;;16.38;100
17950;BME280;9100;48.700;9.316;2022-09-09T02:02:48;97392.8;;;16.34;100
17950;BME280;9100;48.700;9.316;2022-09-09T02:02:55;97402.9;;;16.36;100
17950;BME280;9100;48.700;9.316;2022-09-09T02:03:53;97391.8;;;16.35;100
17950;BME280;9100;48.700;9.316;2022-09-09T02:04:54;97402.9;;;16.36;100
17950;BME280;9100;48.700;9.316;2022-09-09T02:05:55;97403.7;;;16.36;100
17950;BME280;9100;48.700;9.316;2022-09-09T02:06:53;97406.5;;;16.35;100
17950;BME280;9100;48.700;9.316;2022-09-09T02:07:47;97407.3;;;16.35;100
17950;BME280;9100;48.700;9.316;2022-09-09T02:07:54;97407.3;;;16.35;100
17950;BME280;9100;48.700;9.316;2022-09-09T02:08:54;97406.3;;;16.36;100
17950;BME280;9100;48.700;9.316;2022-09-09T02:09:55;97413.59999999999;;;16.39;100
17950;BME280;9100;48.700;9.316;2022-09-09T02:10:53;97409.5;;;16.38;100
17950;BME280;9100;48.700;9.316;2022-09-09T02:11:55;97407.9;;;16.37;100
17950;BME280;9100;48.700;9.316;2022-09-09T02:12:47;97409.3;;;16.33;100
17950;BME280;9100;48.700;9.316;2022-09-09T02:12:54;97410.1;;;16.34;100
17950;BME280;9100;48.700;9.316;2022-09-09T02:13:54;97405;;;16.34;100
17950;BME280;9100;48.700;9.316;2022-09-09T02:14:55;97414.70000000001;;;16.32;100
17950;BME280;9100;48.700;9.316;2022-09-09T02:15:55;97413.4;;;16.29;100
17950;BME280;9100;48.700;9.316;2022-09-09T02:16:54;97418.5;;;16.29;100
17950;BME280;9100;48.700;9.316;2022-09-09T02:17:46;97411.8;;;16.28;100
17950;BME280;9100;48.700;9.316;2022-09-09T02:17:53;97408.2;;;16.29;100
17950;BME280;9100;48.700;9.316;2022-09-09T02:18:54;97416.4;;;16.26;100
17950;BME280;9100;48.700;9.316;2022-09-09T02:19:54;97415.7;;;16.19;100
17950;BME280;9100;48.700;9.316;2022-09-09T02:20:53;97411.40000000001;;;16.13;100
17950;BME280;9100;48.700;9.316;2022-09-09T02:21:53;97403.5;;;16.08;100
17950;BME280;9100;48.700;9.316;2022-09-09T02:22:47;97413.3;;;16.06;100
17950;BME280;9100;48.700;9.316;2022-09-09T02:22:53;97408.1;;;16.06;100
17950;BME280;9100;48.700;9.316;2022-09-09T02:23:53;97407.3;;;16.06;100
17950;BME280;9100;48.700;9.316;2022-09-09T02:24:53;97413.3;;;16.06;100
17950;BME280;9100;48.700;9.316;2022-09-09T02:25:53;97406.8;;;16.04;100
17950;BME280;9100;48.700;9.316;2022-09-09T02:26:53;97410.6;;;16.01;100
17950;BME280;9100;48.700;9.316;2022-09-09T02:27:47;97399.1;;;15.97;100
17950;BME280;9100;48.700;9.316;2022-09-09T02:27:53;97399.1;;;15.97;100
17950;BME280;9100;48.700;9.316;2022-09-09T02:28:54;97400.3;;;15.94;100
17950;BME280;9100;48.700;9.316;2022-09-09T02:29:53;97392.8;;;15.93;100
17950;BME280;9100;48.700;9.316;2022-09-09T02:30:53;97392.5;;;15.89;100
17950;BME280;9100;48.700;9.316;2022-09-09T02:31:53;97389.5;;;15.86;100
17950;BME280;9100;48.700;9.316;2022-09-09T02:32:46;97393.5;;;15.82;100
17950;BME280;9100;48.700;9.316;2022-09-09T02:32:53;97387.40000000001;;;15.83;100
17950;BME280;9100;48.700;9.316;2022-09-09T02:33:54;97397.90000000001;;;15.81;100
17950;BME280;9100;48.700;9.316;2022-09-09T02:34:54;97391.6;;;15.77;100
17950;BME280;9100;48.700;9.316;2022-09-09T02:35:53;97388.3;;;15.77;100
17950;BME280;9100;48.700;9.316;2022-09-09T02:36:53;97379.7;;;15.76;100
17950;BME280;9100;48.700;9.316;2022-09-09T02:37:46;97394.4;;;15.76;100
17950;BME280;9100;48.700;9.316;2022-09-09T02:37:53;97388.3;;;15.77;100
17950;BME280;9100;48.700;9.316;2022-09-09T02:38:53;97388.3;;;15.77;100
17950;BME280;9100;48.700;9.316;2022-09-09T02:39:53;97390.9;;;15.77;100
17950;BME280;9100;48.700;9.316;2022-09-09T02:40:53;97385.5;;;15.78;100
17950;BME280;9100;48.700;9.316;2022-09-09T02:41:53;97387;;;15.79;100
17950;BME280;9100;48.700;9.316;2022-09-09T02:42:47;97389.59999999999;;;15.79;100
17950;BME280;9100;48.700;9.316;2022-09-09T02:42:53;97387.8;;;15.8;100
17950;BME280;9100;48.700;9.316;2022-09-09T02:43:53;97389.4;;;15.81;100
17950;BME280;9100;48.700;9.316;2022-09-09T02:44:53;97397.90000000001;;;15.81;100
17950;BME280;9100;48.700;9.316;2022-09-09T02:45:56;97388.59999999999;;;15.8;100
17950;BME280;9100;48.700;9.316;2022-09-09T02:47:00;97387.8;;;15.8;100
17950;BME280;9100;48.700;9.316;2022-09-09T02:47:47;97388.59999999999;;;15.8;100
17950;BME280;9100;48.700;9.316;2022-09-09T02:47:55;97382.1;;;15.78;100
17950;BME280;9100;48.700;9.316;2022-09-09T02:48:55;97383.90000000001;;;15.77;100
17950;BME280;9100;48.700;9.316;2022-09-09T02:49:56;97383.90000000001;;;15.77;100
17950;BME280;9100;48.700;9.316;2022-09-09T02:50:54;97383.1;;;15.77;100
17950;BME280;9100;48.700;9.316;2022-09-09T02:51:54;97383.90000000001;;;15.77;100
17950;BME280;9100;48.700;9.316;2022-09-09T02:52:49;97386.7;;;15.76;100
17950;BME280;9100;48.700;9.316;2022-09-09T02:52:57;97391.6;;;15.77;100
17950;BME280;9100;48.700;9.316;2022-09-09T02:53:55;97391.4;;;15.79;100
17950;BME280;9100;48.700;9.316;2022-09-09T02:54:54;97389.9;;;15.78;100
17950;BME280;9100;48.700;9.316;2022-09-09T02:55:54;97394;;;15.79;100
17950;BME280;9100;48.700;9.316;2022-09-09T02:56:53;97398.6;;;15.77;100
17950;BME280;9100;48.700;9.316;2022-09-09T02:57:46;97396;;;15.77;100
17950;BME280;9100;48.700;9.316;2022-09-09T02:57:53;97393.4;;;15.77;100
17950;BME280;9100;48.700;9.316;2022-09-09T02:58:53;97395;;;15.78;100
17950;BME280;9100;48.700;9.316;2022-09-09T02:59:53;97397.79999999999;;;15.76;100
17950;BME280;9100;48.700;9.316;2022-09-09T03:00:53;97400.40000000001;;;15.76;100
17950;BME280;9100;48.700;9.316;2022-09-09T03:01:53;97398;;;15.75;100
17950;BME280;9100;48.700;9.316;2022-09-09T03:02:46;97397.2;;;15.74;100
17950;BME280;9100;48.700;9.316;2022-09-09T03:02:53;97401.4;;;15.75;100
17950;BME280;9100;48.700;9.316;2022-09-09T03:03:53;97397;;;15.76;100
17950;BME280;9100;48.700;9.316;2022-09-09T03:04:53;97398.6;;;15.77;100
17950;BME280;9100;48.700;9.316;2022-09-09T03:05:53;97391.9;;;15.76;100
17950;BME280;9100;48.700;9.316;2022-09-09T03:06:53;97392.8;;;15.75;100
17950;BME280;9100;48.700;9.316;2022-09-09T03:07:46;97387.7;;;15.75;100
17950;BME280;9100;48.700;9.316;2022-09-09T03:07:53;97395.4;;;15.75;100
17950;BME280;9100;48.700;9.316;2022-09-09T03:08:53;97390.9;;;15.77;100
17950;BME280;9100;48.700;9.316;2022-09-09T03:09:53;97391.9;;;15.76;100
17950;BME280;9100;48.700;9.316;2022-09-09T03:10:53;97393.4;;;15.77;100
17950;BME280;9100;48.700;9.316;2022-09-09T03:11:53;97393.4;;;15.77;100
17950;BME280;9100;48.700;9.316;2022-09-09T03:12:46;97379.8;;;15.7;100
17950;BME280;9100;48.700;9.316;2022-09-09T03:12:53;97385.7;;;15.77;100
17950;BME280;9100;48.700;9.316;2022-09-09T03:13:53;97390.59999999999;;;15.78;100
17950;BME280;9100;48.700;9.316;2022-09-09T03:14:53;97391.4;;;15.79;100
17950;BME280;9100;48.700;9.316;2022-09-09T03:15:53;97393;;;15.8;100
17950;BME280;9100;48.700;9.316;2022-09-09T03:16:53;97391.4;;;15.79;100
17950;BME280;9100;48.700;9.316;2022-09-09T03:17:46;97389.9;;;15.78;100
17950;BME280;9100;48.700;9.316;2022-09-09T03:17:53;97399.40000000001;;;15.77;100
17950;BME280;9100;48.700;9.316;2022-09-09T03:18:53;97389.09999999999;;;15.77;100
17950;BME280;9100;48.700;9.316;2022-09-09T03:19:53;97392.4;;;15.78;100
17950;BME280;9100;48.700;9.316;2022-09-09T03:20:53;97386.7;;;15.76;100
17950;BME280;9100;48.700;9.316;2022-09-09T03:21:53;97389.5;;;15.74;100
17950;BME280;9100;48.700;9.316;2022-09-09T03:22:46;97401.8;;;15.72;100
17950;BME280;9100;48.700;9.316;2022-09-09T03:22:53;97391.5;;;15.72;100
17950;BME280;9100;48.700;9.316;2022-09-09T03:23:53;97402;;;15.71;100
17950;BME280;9100;48.700;9.316;2022-09-09T03:24:53;97406.6;;;15.69;100
17950;BME280;9100;48.700;9.316;2022-09-09T03:25:53;97401.5;;;15.69;100
17950;BME280;9100;48.700;9.316;2022-09-09T03:26:53;97403.5;;;15.67;100
17950;BME280;9100;48.700;9.316;2022-09-09T03:27:46;97392.6;;;15.65;100
17950;BME280;9100;48.700;9.316;2022-09-09T03:27:53;97399.3;;;15.66;100
17950;BME280;9100;48.700;9.316;2022-09-09T03:28:53;97402.3;;;15.63;100
17950;BME280;9100;48.700;9.316;2022-09-09T03:29:53;97402.3;;;15.63;100
17950;BME280;9100;48.700;9.316;2022-09-09T03:30:57;97399.2;;;15.61;100
17950;BME280;9100;48.700;9.316;2022-09-09T03:31:53;97400.40000000001;;;15.58;100
17950;BME280;9100;48.700;9.316;2022-09-09T03:32:46;97401.59999999999;;;15.56;100
17950;BME280;9100;48.700;9.316;2022-09-09T03:32:53;97401.8;;;15.54;100
17950;BME280;9100;48.700;9.316;2022-09-09T03:33:53;97397.7;;;15.53;100
17950;BME280;9100;48.700;9.316;2022-09-09T03:34:53;97399.7;;;15.51;100
17950;BME280;9100;48.700;9.316;2022-09-09T03:35:53;97406.6;;;15.5;100
17950;BME280;9100;48.700;9.316;2022-09-09T03:36:53;97397.29999999999;;;15.49;100
17950;BME280;9100;48.700;9.316;2022-09-09T03:37:46;97405.2;;;15.48;100
17950;BME280;9100;48.700;9.316;2022-09-09T03:37:53;97404.2;;;15.49;100
17950;BME280;9100;48.700;9.316;2022-09-09T03:38:53;97411;;;15.5;100
17950;BME280;9100;48.700;9.316;2022-09-09T03:39:53;97408.2;;;15.51;100
17950;BME280;9100;48.700;9.316;2022-09-09T03:40:54;97410;;;15.51;100
17950;BME280;9100;48.700;9.316;2022-09-09T03:41:53;97404.5;;;15.47;100
17950;BME280;9100;48.700;9.316;2022-09-09T03:42:46;97399;;;15.44;100
17950;BME280;9100;48.700;9.316;2022-09-09T03:42:53;97404.9;;;15.44;100
17950;BME280;9100;48.700;9.316;2022-09-09T03:43:53;97395.8;;;15.42;100
17950;BME280;9100;48.700;9.316;2022-09-09T03:44:53;97398.6;;;15.4;100
17950;BME280;9100;48.700;9.316;2022-09-09T03:45:53;97405.7;;;15.38;100
17950;BME280;9100;48.700;9.316;2022-09-09T03:46:53;97402.59999999999;;;15.36;100
17950;BME280;9100;48.700;9.316;2022-09-09T03:47:46;97389.09999999999;;;15.34;100
17950;BME280;9100;48.700;9.316;2022-09-09T03:47:53;97399.40000000001;;;15.34;100
17950;BME280;9100;48.700;9.316;2022-09-09T03:48:53;97399.40000000001;;;15.34;100
17950;BME280;9100;48.700;9.316;2022-09-09T03:49:53;97399.7;;;15.33;100
17950;BME280;9100;48.700;9.316;2022-09-09T03:50:53;97403.4;;;15.3;100
17950;BME280;9100;48.700;9.316;2022-09-09T03:51:53;97400.3;;;15.28;100
17950;BME280;9100;48.700;9.316;2022-09-09T03:52:46;97396.40000000001;;;15.26;100
17950;BME280;9100;48.700;9.316;2022-09-09T03:52:53;97390.4;;;15.25;100
17950;BME280;9100;48.700;9.316;2022-09-09T03:53:53;97397.6;;;15.23;100
17950;BME280;9100;48.700;9.316;2022-09-09T03:54:53;97398;;;15.2;100
17950;BME280;9100;48.700;9.316;2022-09-09T03:55:54;97396.8;;;15.16;100
17950;BME280;9100;48.700;9.316;2022-09-09T03:56:53;97394.1;;;15.11;100
17950;BME280;9100;48.700;9.316;2022-09-09T03:57:46;97391;;;15.09;100
17950;BME280;9100;48.700;9.316;2022-09-09T03:57:53;97397.7;;;15.1;100
17950;BME280;9100;48.700;9.316;2022-09-09T03:58:53;97387;;;15.07;100
17950;BME280;9100;48.700;9.316;2022-09-09T03:59:53;97387.5;;;15.03;100
17950;BME280;9100;48.700;9.316;2022-09-09T04:00:54;97383.5;;;15.01;100
17950;BME280;9100;48.700;9.316;2022-09-09T04:01:53;97376.9;;;14.93;100
17950;BME280;9100;48.700;9.316;2022-09-09T04:02:46;97381.4;;;14.98;100
17950;BME280;9100;48.700;9.316;2022-09-09T04:02:53;97384;;;14.98;100
17950;BME280;9100;48.700;9.316;2022-09-09T04:03:53;97377.20000000001;;;14.97;100
17950;BME280;9100;48.700;9.316;2022-09-09T04:04:53;97384;;;14.98;100
17950;BME280;9100;48.700;9.316;2022-09-09T04:05:54;97388.09999999999;;;14.99;100
17950;BME280;9100;48.700;9.316;2022-09-09T04:06:53;97386.7;;;14.96;100
17950;BME280;9100;48.700;9.316;2022-09-09T04:07:46;97384.2;;;14.96;100
17950;BME280;9100;48.700;9.316;2022-09-09T04:07:53;97375.7;;;14.96;100
17950;BME280;9100;48.700;9.316;2022-09-09T04:08:53;97382.4;;;14.97;100
17950;BME280;9100;48.700;9.316;2022-09-09T04:09:53;97384.7;;;14.98;100
17950;BME280;9100;48.700;9.316;2022-09-09T04:10:53;97382.4;;;14.97;100
17950;BME280;9100;48.700;9.316;2022-09-09T04:11:53;97385.2;;;14.95;100
17950;BME280;9100;48.700;9.316;2022-09-09T04:12:46;97380.2;;;14.94;100
17950;BME280;9100;48.700;9.316;2022-09-09T04:12:53;97381.8;;;14.95;100
17950;BME280;9100;48.700;9.316;2022-09-09T04:13:53;97382.8;;;14.94;100
17950;BME280;9100;48.700;9.316;2022-09-09T04:14:53;97385.40000000001;;;14.94;100
17950;BME280;9100;48.700;9.316;2022-09-09T04:15:53;97392.5;;;14.92;100
17950;BME280;9100;48.700;9.316;2022-09-09T04:16:53;97385.79999999999;;;14.91;100
17950;BME280;9100;48.700;9.316;2022-09-09T04:17:46;97386.8;;;14.9;100
17950;BME280;9100;48.700;9.316;2022-09-09T04:17:53;97385.79999999999;;;14.91;100
17950;BME280;9100;48.700;9.316;2022-09-09T04:18:53;97390;;;14.92;100
17950;BME280;9100;48.700;9.316;2022-09-09T04:19:53;97384.6;;;14.93;100
17950;BME280;9100;48.700;9.316;2022-09-09T04:20:54;97389.3;;;14.96;100
17950;BME280;9100;48.700;9.316;2022-09-09T04:21:53;97389.09999999999;;;14.98;100
17950;BME280;9100;48.700;9.316;2022-09-09T04:22:46;97390.5;;;15;100
17950;BME280;9100;48.700;9.316;2022-09-09T04:22:53;97396.2;;;15.02;100
17950;BME280;9100;48.700;9.316;2022-09-09T04:23:53;97389;;;15.04;100
17950;BME280;9100;48.700;9.316;2022-09-09T04:24:53;97395.1;;;15.1;100
17950;BME280;9100;48.700;9.316;2022-09-09T04:25:54;97395.5;;;15.14;100
17950;BME280;9100;48.700;9.316;2022-09-09T04:26:53;97391.7;;;15.16;100
17950;BME280;9100;48.700;9.316;2022-09-09T04:27:46;97391.3;;;15.19;100
17950;BME280;9100;48.700;9.316;2022-09-09T04:27:53;97391.3;;;15.19;100
17950;BME280;9100;48.700;9.316;2022-09-09T04:28:53;97395;;;15.23;100
17950;BME280;9100;48.700;9.316;2022-09-09T04:29:53;97394.8;;;15.25;100
17950;BME280;9100;48.700;9.316;2022-09-09T04:30:53;97393.6;;;15.27;100
17950;BME280;9100;48.700;9.316;2022-09-09T04:31:53;97398.7;;;15.27;100
17950;BME280;9100;48.700;9.316;2022-09-09T04:32:46;97398.29999999999;;;15.3;100
17950;BME280;9100;48.700;9.316;2022-09-09T04:32:53;97395.7;;;15.3;100
17950;BME280;9100;48.700;9.316;2022-09-09T04:33:53;97400.5;;;15.33;100
17950;BME280;9100;48.700;9.316;2022-09-09T04:34:53;97397.90000000001;;;15.33;100